Time;durP1;ratioP1;P1;durP2;ratioP2;P2;SDS_P1;SDS_P2;PMS_P1;PMS_P2;Temp;Humidity;BMP_temperature;BMP_pressure;BME280_temperature;BME280_humidity;BME280_pressure;Samples;Min_cycle;Max_cycle;Signal;HPM_P1;HPM_P2
2022/05/29 00:00:46;;;;;;;4.50;1.63;;;11.40;85.30;;;;;;2081102;28;20025;-71
2022/05/29 00:01:47;;;;;;;4.40;1.75;;;11.40;85.10;;;;;;2080322;28;20437;-71
2022/05/29 00:02:48;;;;;;;4.18;1.90;;;11.40;85.60;;;;;;2083745;28;20021;-71
2022/05/29 00:03:49;;;;;;;4.18;1.70;;;11.40;86.30;;;;;;2083120;28;20048;-71
2022/05/29 00:04:50;;;;;;;6.30;1.80;;;11.40;85.40;;;;;;2083349;28;20031;-71
2022/05/29 00:05:50;;;;;;;5.70;1.75;;;11.40;86.50;;;;;;2083200;28;20017;-71
2022/05/29 00:06:53;;;;;;;5.88;1.60;;;11.30;86.70;;;;;;2085601;28;20041;-71
2022/05/29 00:07:54;;;;;;;6.55;2.42;;;11.30;87.30;;;;;;2084101;28;20021;-71
2022/05/29 00:08:54;;;;;;;4.28;2.00;;;11.30;87.50;;;;;;2081051;28;20028;-70
2022/05/29 00:09:55;;;;;;;4.18;1.50;;;11.30;87.30;;;;;;2082528;28;20072;-70
2022/05/29 00:10:57;;;;;;;3.13;1.60;;;11.30;87.10;;;;;;2086971;28;20037;-70
2022/05/29 00:11:59;;;;;;;4.13;1.80;;;11.20;87.70;;;;;;2079221;28;20108;-70
2022/05/29 00:13:00;;;;;;;4.40;1.70;;;11.20;87.70;;;;;;2085069;28;20024;-70
2022/05/29 00:14:00;;;;;;;6.35;1.75;;;11.20;88.50;;;;;;2082655;28;20045;-70
2022/05/29 00:15:02;;;;;;;2.83;1.92;;;11.20;89.60;;;;;;2084723;28;20108;-70
2022/05/29 00:16:03;;;;;;;4.90;1.88;;;11.20;89.50;;;;;;2085934;28;20033;-71
2022/05/29 00:17:05;;;;;;;8.30;1.88;;;11.20;90.20;;;;;;2081310;28;20511;-71
2022/05/29 00:18:09;;;;;;;6.30;1.88;;;11.10;90.30;;;;;;2082492;28;20030;-71
2022/05/29 00:19:09;;;;;;;3.08;1.70;;;11.10;91.10;;;;;;2090688;28;20025;-71
2022/05/29 00:20:10;;;;;;;3.10;1.50;;;11.10;90.40;;;;;;2082280;28;20101;-71
2022/05/29 00:21:11;;;;;;;4.25;2.08;;;11.10;90.00;;;;;;2082704;28;20029;-71
2022/05/29 00:22:16;;;;;;;6.18;1.83;;;11.10;90.90;;;;;;2082178;28;20481;-71
2022/05/29 00:23:17;;;;;;;6.22;2.13;;;11.00;90.70;;;;;;2081808;28;20057;-71
2022/05/29 00:24:18;;;;;;;4.72;1.83;;;11.00;90.60;;;;;;2080533;28;20393;-71
2022/05/29 00:25:18;;;;;;;6.32;2.15;;;11.00;90.70;;;;;;2079884;28;20383;-71
2022/05/29 00:26:20;;;;;;;3.85;1.90;;;11.00;91.10;;;;;;2080828;28;20032;-71
2022/05/29 00:27:21;;;;;;;5.97;1.77;;;11.00;91.80;;;;;;2083686;28;20029;-71
2022/05/29 00:28:22;;;;;;;8.60;2.33;;;11.00;92.20;;;;;;2082994;28;20025;-71
2022/05/29 00:29:22;;;;;;;6.68;2.05;;;11.00;92.30;;;;;;2083963;28;20067;-71
2022/05/29 00:30:23;;;;;;;4.30;1.60;;;11.00;92.30;;;;;;2082062;28;20026;-71
2022/05/29 00:31:23;;;;;;;5.00;1.80;;;11.00;92.80;;;;;;2084173;28;20096;-71
2022/05/29 00:32:24;;;;;;;3.90;1.55;;;10.90;92.80;;;;;;2081605;28;20017;-71
2022/05/29 00:33:25;;;;;;;5.20;1.90;;;11.00;92.90;;;;;;2081752;28;20109;-71
2022/05/29 00:34:25;;;;;;;3.47;1.90;;;10.90;92.60;;;;;;2080347;28;20083;-71
2022/05/29 00:35:26;;;;;;;5.97;1.88;;;10.90;93.00;;;;;;2079948;28;20393;-71
2022/05/29 00:36:31;;;;;;;4.80;1.70;;;10.90;93.40;;;;;;2083220;28;20019;-71
2022/05/29 00:37:37;;;;;;;5.70;1.75;;;10.90;93.10;;;;;;2083350;28;20057;-71
2022/05/29 00:38:41;;;;;;;8.05;2.47;;;10.90;93.10;;;;;;2086088;28;20025;-71
2022/05/29 00:39:42;;;;;;;4.07;1.92;;;10.90;94.00;;;;;;2086758;28;20397;-71
2022/05/29 00:41:08;;;;;;;7.90;2.72;;;10.80;94.00;;;;;;2084090;28;20029;-71
2022/05/29 00:42:13;;;;;;;6.68;2.20;;;10.80;96.90;;;;;;2086929;28;20028;-71
2022/05/29 00:43:13;;;;;;;4.28;1.75;;;10.80;94.50;;;;;;2084777;28;20105;-71
2022/05/29 00:44:28;;;;;;;4.05;2.00;;;10.70;94.50;;;;;;2085036;28;20477;-71
2022/05/29 00:45:36;;;;;;;5.45;1.80;;;10.70;95.70;;;;;;2080503;28;20085;-71
2022/05/29 00:46:37;;;;;;;3.85;2.20;;;10.70;95.30;;;;;;2082757;28;20028;-71
2022/05/29 00:47:38;;;;;;;6.60;2.08;;;10.70;95.50;;;;;;2083790;28;20092;-71
2022/05/29 00:48:39;;;;;;;4.40;1.90;;;10.70;95.90;;;;;;2075533;28;20485;-71
2022/05/29 00:49:42;;;;;;;3.95;1.70;;;10.60;95.90;;;;;;2076886;28;20029;-71
2022/05/29 00:50:44;;;;;;;4.47;1.58;;;10.60;95.80;;;;;;2087226;28;20077;-71
2022/05/29 00:52:00;;;;;;;4.80;1.88;;;10.70;94.90;;;;;;2081787;28;20071;-71
2022/05/29 00:53:00;;;;;;;6.40;2.08;;;10.60;96.80;;;;;;2082404;28;20397;-71
2022/05/29 00:54:02;;;;;;;5.43;2.08;;;10.60;96.50;;;;;;2084355;28;20386;-71
2022/05/29 00:55:12;;;;;;;6.65;2.08;;;10.60;96.20;;;;;;2082529;28;20041;-71
2022/05/29 00:56:13;;;;;;;5.70;2.22;;;10.60;97.20;;;;;;2082590;28;20120;-71
2022/05/29 00:57:16;;;;;;;5.53;1.60;;;10.60;96.00;;;;;;2082985;28;20032;-71
2022/05/29 00:58:18;;;;;;;4.45;1.88;;;10.50;95.20;;;;;;2081909;28;20482;-71
2022/05/29 00:59:23;;;;;;;4.35;1.65;;;10.50;95.10;;;;;;2081615;28;20037;-71
2022/05/29 01:00:26;;;;;;;7.50;2.15;;;10.50;95.90;;;;;;2082598;28;20390;-71
2022/05/29 01:01:28;;;;;;;2.83;1.50;;;10.50;95.90;;;;;;2084833;28;20064;-71
2022/05/29 01:02:29;;;;;;;3.33;1.90;;;10.50;96.40;;;;;;2084359;28;20053;-72
2022/05/29 01:03:29;;;;;;;5.82;2.17;;;10.50;96.50;;;;;;2082388;28;20026;-71
2022/05/29 01:04:32;;;;;;;4.60;1.77;;;10.50;96.60;;;;;;2084696;28;20055;-71
2022/05/29 01:05:35;;;;;;;3.28;1.55;;;10.50;96.40;;;;;;2081276;28;20025;-71
2022/05/29 01:06:36;;;;;;;9.65;2.05;;;10.50;97.20;;;;;;2084650;28;20024;-71
2022/05/29 01:07:37;;;;;;;3.90;1.45;;;10.50;97.70;;;;;;2084851;28;20099;-71
2022/05/29 01:08:38;;;;;;;3.90;1.73;;;10.40;96.50;;;;;;2083462;28;20472;-71
2022/05/29 01:09:42;;;;;;;5.32;2.00;;;10.40;96.20;;;;;;2082781;28;20075;-71
2022/05/29 01:10:49;;;;;;;5.13;2.00;;;10.40;97.00;;;;;;2082553;28;20517;-71
2022/05/29 01:12:20;;;;;;;4.38;2.15;;;10.40;96.90;;;;;;2084917;28;20123;-71
2022/05/29 01:13:44;;;;;;;3.90;1.80;;;10.40;96.60;;;;;;2087078;28;20549;-71
2022/05/29 01:15:08;;;;;;;7.82;1.85;;;10.30;96.40;;;;;;2091604;28;20051;-71
2022/05/29 01:16:26;;;;;;;4.22;2.05;;;10.30;98.30;;;;;;2084177;28;20112;-71
2022/05/29 01:17:51;;;;;;;5.78;1.63;;;10.30;97.90;;;;;;2082351;28;20017;-71
2022/05/29 01:18:58;;;;;;;3.53;1.75;;;10.30;97.00;;;;;;2083513;28;20034;-71
2022/05/29 01:20:30;;;;;;;4.00;1.80;;;10.20;97.70;;;;;;2085625;28;20100;-71
2022/05/29 01:22:08;;;;;;;4.88;1.77;;;10.20;99.10;;;;;;2086458;28;20033;-71
2022/05/29 01:23:39;;;;;;;3.75;1.92;;;10.10;99.90;;;;;;2085228;28;20025;-71
2022/05/29 01:24:51;;;;;;;4.10;1.65;;;10.10;99.90;;;;;;2086912;28;20108;-71
2022/05/29 01:25:51;;;;;;;3.15;1.60;;;10.10;99.90;;;;;;2083520;28;20104;-71
2022/05/29 01:27:17;;;;;;;4.95;1.90;;;10.00;98.30;;;;;;2081549;28;20028;-71
2022/05/29 01:28:51;;;;;;;3.35;1.55;;;10.00;99.50;;;;;;2082366;28;20531;-71
2022/05/29 01:30:14;;;;;;;3.03;1.67;;;10.00;99.70;;;;;;2084081;28;20043;-71
2022/05/29 01:31:46;;;;;;;7.05;2.45;;;10.00;99.90;;;;;;2084506;28;20045;-71
2022/05/29 01:33:20;;;;;;;7.13;2.40;;;9.90;99.90;;;;;;2081509;28;20024;-71
2022/05/29 01:34:45;;;;;;;3.17;1.52;;;9.90;99.90;;;;;;2081155;28;20097;-71
2022/05/29 01:35:52;;;;;;;7.03;2.00;;;9.90;99.90;;;;;;2081329;28;20017;-71
2022/05/29 01:37:02;;;;;;;4.95;1.60;;;9.90;99.90;;;;;;2082644;28;20056;-71
2022/05/29 01:38:09;;;;;;;5.20;1.95;;;9.90;99.90;;;;;;2084588;28;20381;-71
2022/05/29 01:39:19;;;;;;;4.65;1.98;;;9.90;99.90;;;;;;2083676;28;20120;-71
2022/05/29 01:40:45;;;;;;;5.07;1.50;;;9.90;99.90;;;;;;2081338;28;20033;-71
2022/05/29 01:41:58;;;;;;;5.07;2.25;;;9.90;99.90;;;;;;2081734;28;20175;-71
2022/05/29 01:43:22;;;;;;;1.88;1.50;;;9.90;99.90;;;;;;2082076;28;20048;-71
2022/05/29 01:44:34;;;;;;;4.25;1.73;;;9.80;99.90;;;;;;2084548;28;20028;-71
2022/05/29 01:45:53;;;;;;;5.82;2.17;;;9.80;99.90;;;;;;2084867;28;20017;-71
2022/05/29 01:47:02;;;;;;;3.53;1.50;;;9.80;99.90;;;;;;2083934;28;20017;-71
2022/05/29 01:48:18;;;;;;;4.53;1.77;;;9.80;99.90;;;;;;2085811;28;20492;-71
2022/05/29 01:49:30;;;;;;;4.00;1.85;;;9.80;99.90;;;;;;2084075;28;20552;-71
2022/05/29 01:50:50;;;;;;;3.63;1.77;;;9.80;99.90;;;;;;2085422;28;20040;-71
2022/05/29 01:51:52;;;;;;;4.47;1.63;;;9.80;99.90;;;;;;2081662;28;20840;-71
2022/05/29 01:52:57;;;;;;;4.95;2.10;;;9.70;99.90;;;;;;2085137;28;20025;-71
2022/05/29 01:54:09;;;;;;;5.00;1.95;;;9.70;99.90;;;;;;2080412;28;20282;-71
2022/05/29 01:55:30;;;;;;;3.20;1.83;;;9.80;99.90;;;;;;2081528;28;20029;-71
2022/05/29 01:56:35;;;;;;;4.28;1.65;;;9.70;99.90;;;;;;2082770;28;20666;-71
2022/05/29 01:57:41;;;;;;;4.65;1.60;;;9.70;99.90;;;;;;2081918;28;20075;-71
2022/05/29 01:58:48;;;;;;;4.15;1.90;;;9.70;99.90;;;;;;2084672;28;20131;-71
2022/05/29 01:59:52;;;;;;;5.57;2.20;;;9.70;99.90;;;;;;2081418;28;20022;-71
2022/05/29 02:00:56;;;;;;;4.72;2.25;;;9.70;99.90;;;;;;2085055;28;20103;-71
2022/05/29 02:02:09;;;;;;;5.25;2.00;;;9.70;99.90;;;;;;2083900;28;20057;-71
2022/05/29 02:03:18;;;;;;;4.75;1.95;;;9.70;99.90;;;;;;2086955;28;20354;-71
2022/05/29 02:04:23;;;;;;;3.53;2.10;;;9.70;99.90;;;;;;2083101;28;20029;-71
2022/05/29 02:05:28;;;;;;;4.10;2.10;;;9.70;99.90;;;;;;2086432;28;20052;-72
2022/05/29 02:08:31;;;;;;;2.80;1.80;;;9.70;99.90;;;;;;2083477;28;20029;-71
2022/05/29 02:09:57;;;;;;;5.35;2.20;;;9.60;99.90;;;;;;2084335;28;20017;-71
2022/05/29 02:11:06;;;;;;;4.25;2.28;;;9.60;99.90;;;;;;2076861;28;20073;-71
2022/05/29 02:12:12;;;;;;;3.97;2.10;;;9.60;99.90;;;;;;2088355;28;20266;-71
2022/05/29 02:13:24;;;;;;;6.70;2.35;;;9.60;99.90;;;;;;2087479;28;20108;-72
2022/05/29 02:14:33;;;;;;;4.13;1.92;;;9.60;99.90;;;;;;2086563;28;20013;-71
2022/05/29 02:15:44;;;;;;;4.72;2.30;;;9.60;99.90;;;;;;2081690;28;20033;-71
2022/05/29 02:16:57;;;;;;;6.68;2.35;;;9.60;99.90;;;;;;2083667;28;20066;-71
2022/05/29 02:18:02;;;;;;;5.45;2.00;;;9.60;99.90;;;;;;2083209;28;20029;-71
2022/05/29 02:19:10;;;;;;;5.90;1.98;;;9.60;99.90;;;;;;2086585;28;20032;-71
2022/05/29 02:20:40;;;;;;;5.38;2.10;;;9.60;99.90;;;;;;2084625;28;20393;-71
2022/05/29 02:21:52;;;;;;;5.57;2.75;;;9.60;99.90;;;;;;2083908;28;20115;-71
2022/05/29 02:22:58;;;;;;;6.90;2.58;;;9.60;99.90;;;;;;2081605;28;20041;-71
2022/05/29 02:24:05;;;;;;;6.60;1.98;;;9.60;99.90;;;;;;2080769;28;20030;-71
2022/05/29 02:25:14;;;;;;;3.95;2.03;;;9.60;99.90;;;;;;2084786;28;20017;-71
2022/05/29 02:26:20;;;;;;;5.25;2.55;;;9.60;99.90;;;;;;2084169;28;20036;-71
2022/05/29 02:27:43;;;;;;;5.15;2.10;;;9.60;99.90;;;;;;2083693;28;20025;-71
2022/05/29 02:28:49;;;;;;;6.60;2.53;;;9.50;99.90;;;;;;2084824;28;20021;-71
2022/05/29 02:29:49;;;;;;;7.47;2.70;;;9.50;99.90;;;;;;2081889;28;20542;-71
2022/05/29 02:31:19;;;;;;;5.32;2.30;;;9.50;99.90;;;;;;2083792;28;20026;-71
2022/05/29 02:32:38;;;;;;;4.50;1.87;;;9.50;99.90;;;;;;2083394;28;20223;-71
2022/05/29 02:33:50;;;;;;;2.92;1.88;;;9.50;99.90;;;;;;2086210;28;20339;-71
2022/05/29 02:35:14;;;;;;;5.07;2.15;;;9.50;99.90;;;;;;2089098;28;20105;-71
2022/05/29 02:36:45;;;;;;;7.60;2.85;;;9.50;99.90;;;;;;2082413;28;20037;-71
2022/05/29 02:37:51;;;;;;;5.60;2.03;;;9.50;99.90;;;;;;2084486;28;20076;-71
2022/05/29 02:39:03;;;;;;;5.10;2.33;;;9.50;99.90;;;;;;2080899;28;20034;-71
2022/05/29 02:40:15;;;;;;;4.20;2.22;;;9.50;99.90;;;;;;2082914;28;20029;-71
2022/05/29 02:41:24;;;;;;;5.20;2.42;;;9.50;99.90;;;;;;2084511;28;20025;-71
2022/05/29 02:42:43;;;;;;;5.60;2.30;;;9.50;99.90;;;;;;2080301;28;20029;-71
2022/05/29 02:44:14;;;;;;;5.85;2.20;;;9.50;99.90;;;;;;2077843;28;20017;-71
2022/05/29 02:45:20;;;;;;;7.13;2.63;;;9.40;99.90;;;;;;2081655;28;20425;-71
2022/05/29 02:46:37;;;;;;;5.45;2.13;;;9.40;99.90;;;;;;2081800;28;20025;-71
2022/05/29 02:48:12;;;;;;;5.80;2.05;;;9.40;99.90;;;;;;2084325;28;20032;-71
2022/05/29 02:49:42;;;;;;;4.00;2.28;;;9.40;99.90;;;;;;2084210;28;20491;-71
2022/05/29 02:51:06;;;;;;;6.72;1.92;;;9.40;99.90;;;;;;2084396;28;20040;-71
2022/05/29 02:52:14;;;;;;;7.53;2.38;;;9.40;99.90;;;;;;2078859;28;20590;-71
2022/05/29 02:53:16;;;;;;;6.68;2.38;;;9.40;99.90;;;;;;2082263;28;20607;-71
2022/05/29 02:54:25;;;;;;;5.80;2.17;;;9.40;99.90;;;;;;2085019;28;20028;-71
2022/05/29 02:55:26;;;;;;;3.92;2.30;;;9.40;99.90;;;;;;2084132;28;20033;-71
2022/05/29 02:56:26;;;;;;;3.85;2.42;;;9.40;99.90;;;;;;2085106;28;20021;-71
2022/05/29 02:57:27;;;;;;;6.05;2.53;;;9.40;99.90;;;;;;2076208;28;20026;-71
2022/05/29 02:58:30;;;;;;;5.88;2.63;;;9.40;99.90;;;;;;2085791;28;20079;-71
2022/05/29 02:59:37;;;;;;;5.30;2.42;;;9.40;99.90;;;;;;2082952;28;20021;-71
2022/05/29 03:01:02;;;;;;;6.22;2.45;;;9.40;99.90;;;;;;2081638;28;20022;-72
2022/05/29 03:02:36;;;;;;;5.53;2.17;;;9.40;99.90;;;;;;2084967;28;20021;-71
2022/05/29 03:03:43;;;;;;;4.47;2.00;;;9.40;99.90;;;;;;2084610;28;20484;-71
2022/05/29 03:04:52;;;;;;;2.72;1.75;;;9.40;99.90;;;;;;2090040;28;20040;-71
2022/05/29 03:06:25;;;;;;;7.53;2.60;;;9.40;99.90;;;;;;2075739;28;20071;-71
2022/05/29 03:07:35;;;;;;;3.67;2.33;;;9.40;99.90;;;;;;2068734;28;20121;-71
2022/05/29 03:08:52;;;;;;;3.92;2.10;;;9.40;99.90;;;;;;2081147;28;20444;-71
2022/05/29 03:10:18;;;;;;;6.45;2.20;;;9.40;99.90;;;;;;2083444;28;20053;-71
2022/05/29 03:11:34;;;;;;;4.80;2.13;;;9.40;99.90;;;;;;2081144;28;20018;-71
2022/05/29 03:13:01;;;;;;;3.80;2.20;;;9.40;99.90;;;;;;2085936;28;20108;-71
2022/05/29 03:14:05;;;;;;;5.20;2.05;;;9.40;99.90;;;;;;2083328;28;20028;-71
2022/05/29 03:15:17;;;;;;;5.30;2.75;;;9.40;99.90;;;;;;2082976;28;20044;-71
2022/05/29 03:16:58;;;;;;;3.45;2.17;;;9.40;99.90;;;;;;2084870;28;20462;-71
2022/05/29 03:18:32;;;;;;;7.32;2.70;;;9.40;99.90;;;;;;2083525;28;20120;-71
2022/05/29 03:19:46;;;;;;;5.93;2.58;;;9.40;99.90;;;;;;2083750;28;20023;-71
2022/05/29 03:21:00;;;;;;;6.75;2.80;;;9.40;99.90;;;;;;2085157;28;20021;-71
2022/05/29 03:22:06;;;;;;;7.95;3.42;;;9.40;99.90;;;;;;2082595;28;20071;-71
2022/05/29 03:23:27;;;;;;;7.63;3.42;;;9.40;99.90;;;;;;2082702;28;20021;-71
2022/05/29 03:24:53;;;;;;;6.53;3.22;;;9.40;99.90;;;;;;2085568;28;20029;-71
2022/05/29 03:26:03;;;;;;;7.93;3.25;;;9.40;99.90;;;;;;2082339;28;20041;-71
2022/05/29 03:27:43;;;;;;;5.28;2.90;;;9.40;99.90;;;;;;2080967;28;20017;-71
2022/05/29 03:28:48;;;;;;;7.25;3.08;;;9.40;99.90;;;;;;2082211;28;20104;-71
2022/05/29 03:30:14;;;;;;;6.13;3.03;;;9.40;99.90;;;;;;2082537;28;20066;-71
2022/05/29 03:31:21;;;;;;;6.55;3.45;;;9.40;99.90;;;;;;2078733;28;20025;-71
2022/05/29 03:32:22;;;;;;;10.18;3.83;;;9.40;99.90;;;;;;2080218;28;20053;-71
2022/05/29 03:33:23;;;;;;;6.72;3.58;;;9.40;99.90;;;;;;2081834;28;20033;-71
2022/05/29 03:34:23;;;;;;;5.28;3.53;;;9.40;99.90;;;;;;2085243;28;20590;-71
2022/05/29 03:35:27;;;;;;;5.97;3.95;;;9.40;99.90;;;;;;2080761;28;20013;-71
2022/05/29 03:36:31;;;;;;;8.68;3.38;;;9.50;99.90;;;;;;2084069;28;20021;-71
2022/05/29 03:37:31;;;;;;;4.18;2.97;;;9.50;99.90;;;;;;2085130;28;20079;-71
2022/05/29 03:38:32;;;;;;;8.43;3.63;;;9.50;99.90;;;;;;2084858;28;20065;-71
2022/05/29 03:39:33;;;;;;;5.65;2.95;;;9.50;99.90;;;;;;2081298;28;20544;-71
2022/05/29 03:40:34;;;;;;;6.45;3.20;;;9.50;99.90;;;;;;2082458;28;20029;-71
2022/05/29 03:41:43;;;;;;;8.73;3.55;;;9.60;99.90;;;;;;2079923;28;20013;-71
2022/05/29 03:42:43;;;;;;;9.55;4.13;;;9.60;99.90;;;;;;2080291;28;20039;-71
2022/05/29 03:43:44;;;;;;;6.75;3.50;;;9.60;99.90;;;;;;2083772;28;20029;-71
2022/05/29 03:44:44;;;;;;;6.43;3.55;;;9.60;99.90;;;;;;2084192;28;20044;-71
2022/05/29 03:45:45;;;;;;;7.45;3.38;;;9.60;99.90;;;;;;2083728;28;20531;-71
2022/05/29 03:46:46;;;;;;;6.80;3.53;;;9.70;99.90;;;;;;2080399;28;20370;-71
2022/05/29 03:47:46;;;;;;;6.78;3.67;;;9.70;99.90;;;;;;2083910;28;20461;-71
2022/05/29 03:48:47;;;;;;;6.95;3.50;;;9.70;99.90;;;;;;2083639;28;20079;-71
2022/05/29 03:49:47;;;;;;;5.55;3.80;;;9.70;99.90;;;;;;2083409;28;20373;-71
2022/05/29 03:50:48;;;;;;;11.07;4.30;;;9.70;99.90;;;;;;2085111;28;20025;-71
2022/05/29 03:51:49;;;;;;;8.80;3.70;;;9.80;99.90;;;;;;2083081;28;20025;-71
2022/05/29 03:52:50;;;;;;;9.52;4.25;;;9.80;99.90;;;;;;2081693;28;20127;-71
2022/05/29 03:53:50;;;;;;;11.05;4.07;;;9.80;99.90;;;;;;2080177;28;20029;-71
2022/05/29 03:54:54;;;;;;;8.43;3.90;;;9.80;99.90;;;;;;2082513;28;20097;-71
2022/05/29 03:55:55;;;;;;;9.57;4.20;;;9.90;99.90;;;;;;2083196;28;20024;-71
2022/05/29 03:56:55;;;;;;;11.40;4.13;;;9.90;99.90;;;;;;2081452;28;20547;-71
2022/05/29 03:57:56;;;;;;;6.55;3.78;;;9.90;99.90;;;;;;2080211;28;20026;-71
2022/05/29 03:58:57;;;;;;;10.15;4.40;;;9.90;99.90;;;;;;2080512;28;20038;-71
2022/05/29 03:59:57;;;;;;;5.97;3.80;;;10.00;99.90;;;;;;2082631;28;20552;-71
2022/05/29 04:00:58;;;;;;;11.00;4.70;;;10.00;99.90;;;;;;2084934;28;20021;-71
2022/05/29 04:01:58;;;;;;;9.82;4.60;;;10.00;99.90;;;;;;2086241;28;20805;-71
2022/05/29 04:03:01;;;;;;;6.88;4.13;;;10.10;99.90;;;;;;2083760;28;20440;-71
2022/05/29 04:04:02;;;;;;;7.80;5.03;;;10.10;99.90;;;;;;2084387;28;20432;-71
2022/05/29 04:05:04;;;;;;;10.35;4.90;;;10.10;99.90;;;;;;2080626;28;20026;-72
2022/05/29 04:06:04;;;;;;;6.28;4.25;;;10.10;99.90;;;;;;2081326;28;20033;-71
2022/05/29 04:07:05;;;;;;;7.97;4.70;;;10.20;99.90;;;;;;2079554;28;20022;-71
2022/05/29 04:12:03;;;;;;;10.50;4.97;;;10.20;99.90;;;;;;2083224;28;20029;-71
2022/05/29 04:13:04;;;;;;;5.80;4.35;;;10.30;99.90;;;;;;2081695;28;20484;-71
2022/05/29 04:14:06;;;;;;;11.00;4.38;;;10.30;99.90;;;;;;2082488;28;20083;-71
2022/05/29 04:15:07;;;;;;;9.80;4.85;;;10.30;99.90;;;;;;2081812;28;20105;-71
2022/05/29 04:16:09;;;;;;;8.35;4.70;;;10.30;99.90;;;;;;2086308;28;20028;-71
2022/05/29 04:17:13;;;;;;;7.38;4.50;;;10.40;99.90;;;;;;2084596;28;20509;-71
2022/05/29 04:18:18;;;;;;;12.35;5.75;;;10.40;99.90;;;;;;2083617;28;20207;-71
2022/05/29 04:19:19;;;;;;;9.23;4.57;;;10.50;99.90;;;;;;2087066;28;20060;-71
2022/05/29 04:20:21;;;;;;;9.40;4.90;;;10.50;99.90;;;;;;2084426;28;20028;-71
2022/05/29 04:21:22;;;;;;;8.85;4.72;;;10.50;99.90;;;;;;2087011;28;20041;-71
2022/05/29 04:22:22;;;;;;;9.02;4.75;;;10.50;99.90;;;;;;2082373;28;20056;-71
2022/05/29 04:23:23;;;;;;;9.98;4.35;;;10.50;99.90;;;;;;2085730;28;20484;-71
2022/05/29 04:24:24;;;;;;;9.38;4.75;;;10.60;99.90;;;;;;2083847;28;20025;-71
2022/05/29 04:25:25;;;;;;;8.35;4.32;;;10.60;99.90;;;;;;2083616;28;20053;-71
2022/05/29 04:26:25;;;;;;;8.60;4.88;;;10.60;99.90;;;;;;2086322;28;20028;-71
2022/05/29 04:27:26;;;;;;;11.75;4.70;;;10.70;99.90;;;;;;2084933;28;20024;-71
2022/05/29 04:28:26;;;;;;;9.52;5.00;;;10.70;99.90;;;;;;2088062;28;20488;-71
2022/05/29 04:29:27;;;;;;;9.00;5.18;;;10.70;99.90;;;;;;2081720;28;20448;-71
2022/05/29 04:30:29;;;;;;;8.63;4.28;;;10.70;99.90;;;;;;2082724;28;20404;-71
2022/05/29 04:31:31;;;;;;;10.55;5.10;;;10.80;99.90;;;;;;2084021;28;20039;-71
2022/05/29 04:33:51;;;;;;;17.00;5.00;;;10.80;99.90;;;;;;2083960;28;20017;-71
2022/05/29 04:34:55;;;;;;;10.60;5.15;;;10.80;99.90;;;;;;2084140;28;20472;-71
2022/05/29 04:35:56;;;;;;;8.07;4.88;;;10.90;99.90;;;;;;2082343;28;20105;-71
2022/05/29 04:36:56;;;;;;;10.63;4.93;;;10.90;99.90;;;;;;2085432;28;20492;-71
2022/05/29 04:37:58;;;;;;;12.05;4.32;;;10.90;99.90;;;;;;2082292;28;20037;-71
2022/05/29 04:38:58;;;;;;;8.93;5.65;;;10.90;99.90;;;;;;2081704;28;20057;-71
2022/05/29 04:39:59;;;;;;;7.93;4.45;;;11.00;99.90;;;;;;2084859;28;20040;-71
2022/05/29 04:41:06;;;;;;;10.15;4.32;;;11.00;99.90;;;;;;2086474;28;20045;-71
2022/05/29 04:42:06;;;;;;;8.77;4.68;;;11.00;99.90;;;;;;2083191;28;20060;-71
2022/05/29 04:43:08;;;;;;;7.68;4.43;;;11.00;99.90;;;;;;2083274;28;20056;-71
2022/05/29 04:44:08;;;;;;;7.95;4.68;;;11.10;99.90;;;;;;2083872;28;20040;-71
2022/05/29 04:45:09;;;;;;;10.63;4.65;;;11.00;99.90;;;;;;2081412;28;20033;-71
2022/05/29 04:46:10;;;;;;;7.38;4.72;;;11.10;99.90;;;;;;2085211;28;20025;-71
2022/05/29 04:47:10;;;;;;;7.50;4.68;;;11.10;99.90;;;;;;2081195;28;20033;-71
2022/05/29 04:48:12;;;;;;;8.15;4.43;;;11.20;99.90;;;;;;2087409;28;20092;-71
2022/05/29 04:49:13;;;;;;;9.77;4.65;;;11.20;99.90;;;;;;2084467;28;20034;-71
2022/05/29 04:50:14;;;;;;;10.60;4.32;;;11.20;99.90;;;;;;2081563;28;20009;-71
2022/05/29 04:51:15;;;;;;;8.52;4.22;;;11.20;99.90;;;;;;2085037;28;20536;-71
2022/05/29 04:52:15;;;;;;;8.40;4.57;;;11.30;99.90;;;;;;2081208;28;20370;-71
2022/05/29 04:53:16;;;;;;;9.88;4.85;;;11.20;99.90;;;;;;2081392;28;20053;-71
2022/05/29 04:54:16;;;;;;;11.77;4.65;;;11.30;99.90;;;;;;2081594;28;20025;-71
2022/05/29 04:55:18;;;;;;;9.27;4.28;;;11.30;99.90;;;;;;2081579;28;20025;-71
2022/05/29 04:56:18;;;;;;;11.23;4.75;;;11.30;99.90;;;;;;2081226;28;20033;-71
2022/05/29 04:57:19;;;;;;;9.55;4.60;;;11.30;99.90;;;;;;2076573;28;20030;-71
2022/05/29 04:58:20;;;;;;;8.23;4.60;;;11.30;99.90;;;;;;2083816;28;20021;-70
2022/05/29 04:59:21;;;;;;;9.02;4.65;;;11.40;99.90;;;;;;2086924;28;20420;-70
2022/05/29 05:00:22;;;;;;;7.82;4.55;;;11.40;99.90;;;;;;2082679;28;20125;-71
2022/05/29 05:01:23;;;;;;;7.30;4.30;;;11.40;99.90;;;;;;2082388;28;20469;-71
2022/05/29 05:02:27;;;;;;;10.18;5.18;;;11.40;99.90;;;;;;2082068;28;20025;-71
2022/05/29 05:03:29;;;;;;;8.65;3.92;;;11.40;99.90;;;;;;2082535;28;20040;-71
2022/05/29 05:04:30;;;;;;;7.47;4.47;;;11.50;99.90;;;;;;2082928;28;20017;-71
2022/05/29 05:05:31;;;;;;;7.70;4.90;;;11.50;99.90;;;;;;2082113;28;20252;-71
2022/05/29 05:06:31;;;;;;;8.27;4.43;;;11.50;99.90;;;;;;2088407;28;20029;-71
2022/05/29 05:07:32;;;;;;;8.15;5.03;;;11.50;99.90;;;;;;2085480;28;20025;-71
2022/05/29 05:08:33;;;;;;;9.60;4.75;;;11.50;99.90;;;;;;2081679;28;20021;-71
2022/05/29 05:09:33;;;;;;;9.50;4.88;;;11.50;99.90;;;;;;2081727;28;20018;-71
2022/05/29 05:10:34;;;;;;;9.05;5.38;;;11.50;99.90;;;;;;2084262;28;20139;-71
2022/05/29 05:11:34;;;;;;;7.28;4.10;;;11.60;99.90;;;;;;2082046;28;20392;-71
2022/05/29 05:12:35;;;;;;;10.15;4.28;;;11.60;99.90;;;;;;2085838;28;20018;-71
2022/05/29 05:13:36;;;;;;;9.70;4.75;;;11.60;99.90;;;;;;2085112;28;20128;-71
2022/05/29 05:14:36;;;;;;;8.52;4.30;;;11.60;99.90;;;;;;2083033;28;20025;-71
2022/05/29 05:15:37;;;;;;;6.72;4.43;;;11.60;99.90;;;;;;2080141;28;20108;-71
2022/05/29 05:16:38;;;;;;;8.65;4.90;;;11.70;99.90;;;;;;2081981;28;20025;-70
2022/05/29 05:17:38;;;;;;;10.00;4.47;;;11.70;99.90;;;;;;2081530;28;20017;-71
2022/05/29 05:18:39;;;;;;;10.73;4.88;;;11.70;99.90;;;;;;2084646;28;20023;-71
2022/05/29 05:19:39;;;;;;;10.10;4.55;;;11.70;99.90;;;;;;2088512;28;20026;-71
2022/05/29 05:20:40;;;;;;;10.32;4.70;;;11.80;99.90;;;;;;2084891;28;20017;-71
2022/05/29 05:21:41;;;;;;;7.45;4.18;;;11.80;99.90;;;;;;2087253;28;20574;-71
2022/05/29 05:22:42;;;;;;;8.35;5.10;;;11.80;99.90;;;;;;2084569;28;20021;-71
2022/05/29 05:23:42;;;;;;;7.65;4.10;;;11.80;99.90;;;;;;2086019;28;20055;-71
2022/05/29 05:24:43;;;;;;;9.52;4.07;;;11.80;99.90;;;;;;2084136;28;20075;-71
2022/05/29 05:25:43;;;;;;;6.57;4.28;;;11.80;99.90;;;;;;2084164;28;20047;-71
2022/05/29 05:26:44;;;;;;;9.20;3.85;;;11.80;99.90;;;;;;2085580;28;20519;-71
2022/05/29 05:27:45;;;;;;;6.72;4.03;;;11.80;99.90;;;;;;2084890;28;20028;-71
2022/05/29 05:28:45;;;;;;;5.90;4.18;;;11.80;99.90;;;;;;2081764;28;20053;-71
2022/05/29 05:29:46;;;;;;;11.13;4.35;;;11.90;99.90;;;;;;2086284;28;20017;-71
2022/05/29 05:30:48;;;;;;;6.35;4.47;;;11.90;99.90;;;;;;2082472;28;20083;-71
2022/05/29 05:31:48;;;;;;;7.15;4.35;;;11.90;99.90;;;;;;2083246;28;20483;-71
2022/05/29 05:32:49;;;;;;;6.95;4.00;;;11.90;99.90;;;;;;2084487;28;20087;-71
2022/05/29 05:33:49;;;;;;;8.70;3.90;;;11.90;99.90;;;;;;2082613;28;20017;-71
2022/05/29 05:34:50;;;;;;;10.00;3.45;;;11.90;99.90;;;;;;2084186;28;20024;-71
2022/05/29 05:35:51;;;;;;;7.95;4.53;;;12.00;99.90;;;;;;2084537;28;20088;-71
2022/05/29 05:36:51;;;;;;;6.72;4.53;;;12.00;99.90;;;;;;2080986;28;20560;-71
2022/05/29 05:37:52;;;;;;;6.90;4.00;;;12.00;99.90;;;;;;2083980;28;20055;-71
2022/05/29 05:38:53;;;;;;;8.25;4.18;;;12.00;99.90;;;;;;2081647;28;20026;-71
2022/05/29 05:39:54;;;;;;;8.18;3.70;;;12.10;99.90;;;;;;2085048;28;20035;-71
2022/05/29 05:40:54;;;;;;;7.80;4.43;;;12.10;99.90;;;;;;2083315;28;20025;-70
2022/05/29 05:41:55;;;;;;;7.45;3.75;;;12.10;99.90;;;;;;2083491;28;20017;-71
2022/05/29 05:42:55;;;;;;;13.52;5.03;;;12.10;99.90;;;;;;2081245;28;20025;-71
2022/05/29 05:43:56;;;;;;;7.30;4.35;;;12.10;99.90;;;;;;2083365;28;20029;-71
2022/05/29 05:44:56;;;;;;;8.68;3.92;;;12.10;99.90;;;;;;2086739;28;20116;-71
2022/05/29 05:45:57;;;;;;;6.63;3.65;;;12.20;99.90;;;;;;2081427;28;20034;-71
2022/05/29 05:46:57;;;;;;;5.55;3.50;;;12.20;99.90;;;;;;2081913;28;20037;-70
2022/05/29 05:47:58;;;;;;;4.85;3.40;;;12.20;99.90;;;;;;2085929;28;20029;-70
2022/05/29 05:48:59;;;;;;;8.43;4.13;;;12.20;99.90;;;;;;2082539;28;20037;-71
2022/05/29 05:50:00;;;;;;;5.90;3.40;;;12.20;99.90;;;;;;2081164;28;20021;-71
2022/05/29 05:51:01;;;;;;;6.43;3.33;;;12.20;99.90;;;;;;2086389;28;20032;-71
2022/05/29 05:52:02;;;;;;;8.32;3.67;;;12.30;99.90;;;;;;2081057;28;20528;-71
2022/05/29 05:53:03;;;;;;;10.00;3.38;;;12.30;99.90;;;;;;2084291;28;20009;-71
2022/05/29 05:54:04;;;;;;;7.30;3.35;;;12.30;99.90;;;;;;2083132;28;20030;-71
2022/05/29 05:55:11;;;;;;;6.47;3.72;;;12.30;99.90;;;;;;2084665;28;20026;-71